createdAt,value
2023-02-03T00:00:44.750Z,100.00
2023-02-03T00:03:12.348Z,100.00
2023-02-03T00:05:43.324Z,100.00
2023-02-03T00:08:11.577Z,100.00
2023-02-03T00:10:39.952Z,100.00
2023-02-03T00:13:11.357Z,100.00
2023-02-03T00:15:47.313Z,100.00
2023-02-03T00:18:14.297Z,100.00
2023-02-03T00:20:46.280Z,100.00
2023-02-03T00:23:13.524Z,100.00
2023-02-03T00:25:40.913Z,100.00
2023-02-03T00:28:07.856Z,100.00
2023-02-03T00:30:36.128Z,100.00
2023-02-03T00:33:03.690Z,100.00
2023-02-03T00:35:31.386Z,100.00
2023-02-03T00:37:59.069Z,100.00
2023-02-03T00:40:27.332Z,100.00
2023-02-03T00:42:55.125Z,100.00
2023-02-03T00:45:22.358Z,100.00
2023-02-03T00:47:50.077Z,100.00
2023-02-03T00:50:17.176Z,100.00
2023-02-03T00:52:44.203Z,100.00
2023-02-03T00:55:10.997Z,100.00
2023-02-03T00:57:37.851Z,100.00
2023-02-03T01:00:05.994Z,100.00
2023-02-03T01:02:33.001Z,100.00
2023-02-03T01:04:59.883Z,100.00
2023-02-03T01:07:26.756Z,100.00
2023-02-03T01:09:53.506Z,100.00
2023-02-03T01:12:20.457Z,100.00
2023-02-03T01:14:47.291Z,100.00
2023-02-03T01:17:14.177Z,100.00
2023-02-03T01:19:41.001Z,100.00
2023-02-03T01:22:07.993Z,100.00
2023-02-03T01:24:34.828Z,100.00
2023-02-03T01:27:01.664Z,100.00
2023-02-03T01:29:28.623Z,100.00
2023-02-03T01:31:55.721Z,100.00
2023-02-03T01:34:22.611Z,100.00
2023-02-03T01:36:49.489Z,100.00
2023-02-03T01:39:16.382Z,100.00
2023-02-03T01:41:46.228Z,100.00
2023-02-03T01:44:48.470Z,100.00
2023-02-03T01:47:23.587Z,100.00
2023-02-03T01:50:05.868Z,100.00
2023-02-03T01:52:32.975Z,100.00
2023-02-03T01:55:02.726Z,100.00
2023-02-03T01:57:36.170Z,100.00
2023-02-03T02:00:05.729Z,100.00
2023-02-03T02:02:42.189Z,100.00
2023-02-03T02:05:47.361Z,100.00
2023-02-03T02:08:16.518Z,100.00
2023-02-03T02:10:44.014Z,100.00
2023-02-03T02:13:12.826Z,100.00
2023-02-03T02:16:06.793Z,100.00
2023-02-03T02:19:00.980Z,100.00
2023-02-03T02:21:44.230Z,100.00
2023-02-03T02:24:38.743Z,100.00
2023-02-03T02:27:50.469Z,100.00
2023-02-03T02:30:47.894Z,100.00
2023-02-03T02:33:31.143Z,100.00
2023-02-03T02:36:04.648Z,100.00
2023-02-03T02:38:58.841Z,100.00
2023-02-03T02:41:28.628Z,100.00
2023-02-03T02:44:22.053Z,100.00
2023-02-03T02:46:53.898Z,100.00
2023-02-03T02:49:37.460Z,100.00
2023-02-03T02:52:07.562Z,100.00
2023-02-03T02:54:40.116Z,100.00
2023-02-03T02:57:11.765Z,100.00
2023-02-03T02:59:38.621Z,100.00
2023-02-03T03:02:05.699Z,100.00
2023-02-03T03:04:35.268Z,100.00
2023-02-03T03:07:20.444Z,100.00
2023-02-03T03:09:54.927Z,100.00
2023-02-03T03:12:30.083Z,100.00
2023-02-03T03:15:01.113Z,100.00
2023-02-03T03:17:37.683Z,100.00
2023-02-03T03:20:14.233Z,100.00
2023-02-03T03:22:48.426Z,100.00
2023-02-03T03:25:18.515Z,100.00
2023-02-03T03:27:58.094Z,100.00
2023-02-03T03:30:29.560Z,100.00
2023-02-03T03:32:57.056Z,100.00
2023-02-03T03:35:28.856Z,100.00
2023-02-03T03:38:11.426Z,100.00
2023-02-03T03:40:59.860Z,100.00
2023-02-03T03:43:32.397Z,100.00
2023-02-03T03:46:04.402Z,100.00
2023-02-03T03:48:59.168Z,100.00
2023-02-03T03:51:38.637Z,100.00
2023-02-03T03:54:10.497Z,100.00
2023-02-03T03:56:45.063Z,100.00
2023-02-03T03:59:15.215Z,100.00
2023-02-03T04:01:43.120Z,100.00
2023-02-03T04:04:13.562Z,100.00
2023-02-03T04:06:40.558Z,100.00
2023-02-03T04:09:07.637Z,100.00
2023-02-03T04:11:53.467Z,100.00
2023-02-03T04:14:20.325Z,100.00
2023-02-03T04:16:47.116Z,100.00
2023-02-03T04:19:14.014Z,100.00
2023-02-03T04:21:40.838Z,100.00
2023-02-03T04:24:07.901Z,100.00
2023-02-03T04:26:34.813Z,100.00
2023-02-03T04:29:01.694Z,100.00
2023-02-03T04:31:28.554Z,100.00
2023-02-03T04:33:55.451Z,100.00
2023-02-03T04:36:22.362Z,100.00
2023-02-03T04:38:49.981Z,100.00
2023-02-03T04:41:17.353Z,100.00
2023-02-03T04:43:44.348Z,100.00
2023-02-03T04:46:14.160Z,100.00
2023-02-03T04:48:41.016Z,100.00
2023-02-03T04:51:09.102Z,100.00
2023-02-03T04:53:36.501Z,100.00
2023-02-03T04:56:04.080Z,100.00
2023-02-03T04:58:31.087Z,100.00
2023-02-03T05:00:57.945Z,100.00
2023-02-03T05:03:26.279Z,100.00
2023-02-03T05:05:56.516Z,100.00
2023-02-03T05:08:23.313Z,100.00
2023-02-03T05:10:50.132Z,100.00
2023-02-03T05:13:17.177Z,100.00
2023-02-03T05:15:44.018Z,100.00
2023-02-03T05:18:10.872Z,100.00
2023-02-03T05:20:37.627Z,100.00
2023-02-03T05:23:04.839Z,100.00
2023-02-03T05:25:31.704Z,100.00
2023-02-03T05:27:58.605Z,100.00
2023-02-03T05:30:25.724Z,100.00
2023-02-03T05:32:52.872Z,100.00
2023-02-03T05:35:19.726Z,100.00
2023-02-03T05:37:46.726Z,100.00
2023-02-03T05:40:32.660Z,100.00
2023-02-03T05:42:59.487Z,100.00
2023-02-03T05:45:26.413Z,100.00
2023-02-03T05:47:53.276Z,100.00
2023-02-03T05:50:20.148Z,100.00
2023-02-03T05:52:49.958Z,100.00
2023-02-03T05:55:17.027Z,100.00
2023-02-03T05:57:43.861Z,100.00
2023-02-03T06:00:11.260Z,100.00
2023-02-03T06:02:40.901Z,100.00
2023-02-03T06:05:08.317Z,100.00
2023-02-03T06:07:35.702Z,100.00
2023-02-03T06:10:03.067Z,100.00
2023-02-03T06:12:29.895Z,100.00
2023-02-03T06:14:56.724Z,100.00
2023-02-03T06:17:23.678Z,100.00
2023-02-03T06:19:50.478Z,100.00
2023-02-03T06:22:17.360Z,100.00
2023-02-03T06:24:46.480Z,100.00
2023-02-03T06:27:13.531Z,100.00
2023-02-03T06:29:40.727Z,100.00
2023-02-03T06:32:08.352Z,100.00
2023-02-03T06:34:35.648Z,100.00
2023-02-03T06:37:02.552Z,100.00
2023-02-03T06:39:29.427Z,100.00
2023-02-03T06:41:56.522Z,100.00
2023-02-03T06:44:23.403Z,100.00
2023-02-03T06:46:50.970Z,100.00
2023-02-03T06:49:18.224Z,100.00
2023-02-03T06:51:46.047Z,100.00
2023-02-03T06:54:13.655Z,100.00
2023-02-03T06:56:40.570Z,100.00
2023-02-03T06:59:09.087Z,100.00
2023-02-03T07:01:36.966Z,100.00
2023-02-03T07:04:04.555Z,100.00
2023-02-03T07:06:34.195Z,100.00
2023-02-03T07:09:05.358Z,100.00
2023-02-03T07:11:32.489Z,100.00
2023-02-03T07:13:59.481Z,100.00
2023-02-03T07:16:27.725Z,100.00
2023-02-03T07:18:54.601Z,100.00
2023-02-03T07:21:21.476Z,100.00
2023-02-03T07:23:49.595Z,100.00
2023-02-03T07:26:17.778Z,100.00
2023-02-03T07:28:44.637Z,100.00
2023-02-03T07:31:11.707Z,100.00
2023-02-03T07:33:38.946Z,100.00
2023-02-03T07:36:07.458Z,100.00
2023-02-03T07:38:34.303Z,100.00
2023-02-03T07:41:01.126Z,100.00
2023-02-03T07:43:27.918Z,100.00
2023-02-03T07:45:54.859Z,100.00
2023-02-03T07:48:21.727Z,100.00
2023-02-03T07:50:49.250Z,100.00
2023-02-03T07:53:16.106Z,100.00
2023-02-03T07:55:43.195Z,100.00
2023-02-03T07:58:10.080Z,100.00
2023-02-03T08:00:37.632Z,100.00
2023-02-03T08:03:04.661Z,100.00
2023-02-03T08:05:31.651Z,100.00
2023-02-03T08:07:59.550Z,100.00
2023-02-03T08:10:26.959Z,100.00
2023-02-03T08:12:55.148Z,100.00
2023-02-03T08:15:22.191Z,100.00
2023-02-03T08:17:50.429Z,100.00
2023-02-03T08:20:17.861Z,100.00
2023-02-03T08:22:47.904Z,100.00
2023-02-03T08:25:14.786Z,100.00
2023-02-03T08:27:42.255Z,100.00
2023-02-03T08:30:13.178Z,100.00
2023-02-03T08:32:40.581Z,100.00
2023-02-03T08:35:07.891Z,100.00
2023-02-03T08:37:35.212Z,100.00
2023-02-03T08:40:02.115Z,100.00
2023-02-03T08:42:29.179Z,100.00
2023-02-03T08:44:56.297Z,100.00
2023-02-03T08:47:23.412Z,100.00
2023-02-03T08:49:50.239Z,100.00
2023-02-03T08:52:19.090Z,100.00
2023-02-03T08:54:46.545Z,100.00
2023-02-03T08:57:13.544Z,100.00
2023-02-03T08:59:43.492Z,100.00
2023-02-03T09:02:15.615Z,100.00
2023-02-03T09:04:44.266Z,100.00
2023-02-03T09:07:11.348Z,100.00
2023-02-03T09:09:38.297Z,100.00
2023-02-03T09:12:08.062Z,100.00
2023-02-03T09:14:35.655Z,100.00
2023-02-03T09:17:04.102Z,100.00
2023-02-03T09:19:32.052Z,100.00
2023-02-03T09:22:00.124Z,100.00
2023-02-03T09:24:27.394Z,100.00
2023-02-03T09:26:56.248Z,100.00
2023-02-03T09:29:23.420Z,100.00
2023-02-03T09:31:53.155Z,100.00
2023-02-03T09:34:21.425Z,100.00
2023-02-03T09:36:48.947Z,100.00
2023-02-03T09:39:16.079Z,100.00
2023-02-03T09:41:45.571Z,100.00
2023-02-03T09:44:30.444Z,100.00
2023-02-03T09:47:02.871Z,100.00
2023-02-03T09:49:42.640Z,100.00
2023-02-03T09:52:20.615Z,100.00
2023-02-03T09:54:47.397Z,100.00
2023-02-03T09:57:21.375Z,100.00
2023-02-03T09:59:49.514Z,100.00
2023-02-03T10:02:47.462Z,94.09
2023-02-03T10:05:16.917Z,93.85
2023-02-03T10:07:46.525Z,91.51
2023-02-03T10:10:26.410Z,88.90
2023-02-03T10:13:07.705Z,89.77
2023-02-03T10:16:02.709Z,86.34
2023-02-03T10:18:45.979Z,86.46
2023-02-03T10:21:23.782Z,76.78
2023-02-03T10:23:55.162Z,77.77
2023-02-03T10:26:26.443Z,79.60
2023-02-03T10:28:57.384Z,79.43
2023-02-03T10:31:32.413Z,78.58
2023-02-03T10:34:11.748Z,74.17
2023-02-03T10:36:45.319Z,77.52
2023-02-03T10:39:23.565Z,79.34
2023-02-03T10:41:50.704Z,79.78
2023-02-03T10:44:17.578Z,75.43
2023-02-03T10:46:45.658Z,73.00
2023-02-03T10:49:15.197Z,73.64
2023-02-03T10:51:50.689Z,67.93
2023-02-03T10:54:35.926Z,67.86
2023-02-03T10:57:12.187Z,68.43
2023-02-03T10:59:43.720Z,67.18
2023-02-03T11:02:23.237Z,67.05
2023-02-03T11:05:09.452Z,67.40
2023-02-03T11:07:37.011Z,66.98
2023-02-03T11:10:04.184Z,61.04
2023-02-03T11:12:31.073Z,60.83
2023-02-03T11:15:05.557Z,66.54
2023-02-03T11:17:36.692Z,67.79
2023-02-03T11:20:14.487Z,64.72
2023-02-03T11:22:43.409Z,60.91
2023-02-03T11:25:27.135Z,64.82
2023-02-03T11:27:56.357Z,65.77
2023-02-03T11:30:27.062Z,63.58
2023-02-03T11:32:54.433Z,62.73
2023-02-03T11:35:24.676Z,64.74
2023-02-03T11:37:54.601Z,66.91
2023-02-03T11:40:21.518Z,67.06
2023-02-03T11:42:51.306Z,67.81
2023-02-03T11:45:18.152Z,65.20
2023-02-03T11:47:58.825Z,67.50
2023-02-03T11:50:54.269Z,62.59
2023-02-03T11:53:32.993Z,62.72
2023-02-03T11:56:18.567Z,59.89
2023-02-03T11:58:54.147Z,58.89
2023-02-03T12:01:24.002Z,60.81
2023-02-03T12:04:23.218Z,62.18
2023-02-03T12:07:05.446Z,62.90
2023-02-03T12:09:35.486Z,62.48
2023-02-03T12:12:20.800Z,62.82
2023-02-03T12:15:03.268Z,63.46
2023-02-03T12:17:32.711Z,61.91
2023-02-03T12:20:05.563Z,60.64
2023-02-03T12:23:03.539Z,62.19
2023-02-03T12:25:56.265Z,62.80
2023-02-03T12:28:41.439Z,59.69
2023-02-03T12:31:27.661Z,63.41
2023-02-03T12:34:09.409Z,64.60
2023-02-03T12:36:56.235Z,59.34
2023-02-03T12:39:51.348Z,59.35
2023-02-03T12:42:20.026Z,60.06
2023-02-03T12:44:57.738Z,60.09
2023-02-03T12:47:45.041Z,58.51
2023-02-03T12:50:17.608Z,58.54
2023-02-03T12:52:52.877Z,57.10
2023-02-03T12:55:56.089Z,56.71
2023-02-03T12:58:32.988Z,58.65
2023-02-03T13:01:07.533Z,58.01
2023-02-03T13:04:09.880Z,54.88
2023-02-03T13:06:52.869Z,53.32
2023-02-03T13:09:38.785Z,53.83
2023-02-03T13:12:09.196Z,55.33
2023-02-03T13:14:44.983Z,56.94
2023-02-03T13:17:45.989Z,55.41
2023-02-03T13:20:20.620Z,53.77
2023-02-03T13:22:47.632Z,54.79
2023-02-03T13:25:39.198Z,54.59
2023-02-03T13:28:13.489Z,55.62
2023-02-03T13:31:02.067Z,56.72
2023-02-03T13:33:42.296Z,55.96
2023-02-03T13:36:14.835Z,55.92
2023-02-03T13:39:08.630Z,56.07
2023-02-03T13:42:07.196Z,56.96
2023-02-03T13:44:37.106Z,58.64
2023-02-03T13:47:04.324Z,58.84
2023-02-03T13:49:36.103Z,58.64
2023-02-03T13:52:03.685Z,58.88
2023-02-03T13:54:36.168Z,59.08
2023-02-03T13:57:06.098Z,60.32
2023-02-03T13:59:39.068Z,61.39
2023-02-03T14:02:24.537Z,60.87
2023-02-03T14:04:54.076Z,61.92
2023-02-03T14:07:24.943Z,61.03
2023-02-03T14:10:13.673Z,62.38
2023-02-03T14:12:49.867Z,61.48
2023-02-03T14:15:26.352Z,63.31
2023-02-03T14:17:55.948Z,63.66
2023-02-03T14:20:25.649Z,62.95
2023-02-03T14:22:57.495Z,63.98
2023-02-03T14:25:27.309Z,66.19
2023-02-03T14:28:05.815Z,64.61
2023-02-03T14:30:32.899Z,66.49
2023-02-03T14:33:02.932Z,67.34
2023-02-03T14:35:29.847Z,69.59
2023-02-03T14:38:02.028Z,70.93
2023-02-03T14:40:42.028Z,70.84
2023-02-03T14:43:27.735Z,70.34
2023-02-03T14:46:16.868Z,72.21
2023-02-03T14:49:09.807Z,71.35
2023-02-03T14:52:12.192Z,71.58
2023-02-03T14:54:51.349Z,72.37
2023-02-03T14:57:29.960Z,72.51
2023-02-03T15:00:03.549Z,70.83
2023-02-03T15:02:32.493Z,69.21
2023-02-03T15:05:14.506Z,70.22
2023-02-03T15:07:46.574Z,69.92
2023-02-03T15:10:41.179Z,69.15
2023-02-03T15:13:30.778Z,69.09
2023-02-03T15:16:04.525Z,68.54
2023-02-03T15:18:32.958Z,70.79
2023-02-03T15:20:59.826Z,71.24
2023-02-03T15:23:29.543Z,72.73
2023-02-03T15:26:02.414Z,73.66
2023-02-03T15:28:30.683Z,73.62
2023-02-03T15:31:19.977Z,75.14
2023-02-03T15:33:50.100Z,75.61
2023-02-03T15:36:24.888Z,76.31
2023-02-03T15:39:02.858Z,78.02
2023-02-03T15:41:29.844Z,78.52
2023-02-03T15:44:02.685Z,78.83
2023-02-03T15:46:44.010Z,78.38
2023-02-03T15:49:21.611Z,79.46
2023-02-03T15:51:58.527Z,81.64
2023-02-03T15:54:41.021Z,81.94
2023-02-03T15:57:14.895Z,81.93
2023-02-03T15:59:43.908Z,82.64
2023-02-03T16:02:19.223Z,82.79
2023-02-03T16:04:46.541Z,82.08
2023-02-03T16:07:33.589Z,83.76
2023-02-03T16:10:01.172Z,84.03
2023-02-03T16:12:32.850Z,84.79
2023-02-03T16:15:02.085Z,85.46
2023-02-03T16:17:30.560Z,85.41
2023-02-03T16:20:12.371Z,85.73
2023-02-03T16:22:39.130Z,86.59
2023-02-03T16:25:25.796Z,86.33
2023-02-03T16:28:32.561Z,87.03
2023-02-03T16:31:21.665Z,87.00
2023-02-03T16:34:09.379Z,85.78
2023-02-03T16:37:03.239Z,86.78
2023-02-03T16:39:49.168Z,86.82
2023-02-03T16:42:39.538Z,86.82
2023-02-03T16:45:37.206Z,86.46
2023-02-03T16:48:24.097Z,85.75
2023-02-03T16:50:59.917Z,86.09
2023-02-03T16:53:30.585Z,86.31
2023-02-03T16:55:59.506Z,87.54
2023-02-03T16:58:26.924Z,87.21
2023-02-03T17:00:54.863Z,87.22
2023-02-03T17:03:24.236Z,87.43
2023-02-03T17:05:52.208Z,87.77
2023-02-03T17:08:21.672Z,87.98
2023-02-03T17:10:49.574Z,88.26
2023-02-03T17:13:18.319Z,87.67
2023-02-03T17:15:47.663Z,87.55
2023-02-03T17:18:16.160Z,87.91
2023-02-03T17:20:44.365Z,89.32
2023-02-03T17:23:12.274Z,90.13
2023-02-03T17:25:39.841Z,90.68
2023-02-03T17:28:08.878Z,92.24
2023-02-03T17:30:36.414Z,92.86
2023-02-03T17:33:14.815Z,92.71
2023-02-03T17:35:43.847Z,92.36
2023-02-03T17:38:12.095Z,92.34
2023-02-03T17:54:07.400Z,91.92
2023-02-03T17:56:35.853Z,93.31
2023-02-03T17:59:04.860Z,94.26
2023-02-03T18:01:32.484Z,94.81
2023-02-03T18:04:02.146Z,95.81
2023-02-03T18:06:30.475Z,96.90
2023-02-03T18:09:01.376Z,96.58
2023-02-03T18:11:32.821Z,97.29
2023-02-03T18:14:00.458Z,97.54
2023-02-03T18:16:32.517Z,99.91
2023-02-03T18:19:01.154Z,99.15
2023-02-03T18:21:28.080Z,98.45
2023-02-03T18:23:59.579Z,98.66
2023-02-03T18:26:28.908Z,98.85
2023-02-03T18:28:56.163Z,100.00
2023-02-03T18:31:25.390Z,100.00
2023-02-03T18:33:52.484Z,100.00
2023-02-03T18:36:19.735Z,100.00
2023-02-03T18:38:47.903Z,100.00
2023-02-03T18:41:17.472Z,100.00
2023-02-03T18:43:45.181Z,100.00
2023-02-03T18:46:16.557Z,100.00
2023-02-03T18:48:43.390Z,100.00
2023-02-03T18:51:15.607Z,100.00
2023-02-03T18:53:45.128Z,100.00
2023-02-03T18:56:19.638Z,100.00
2023-02-03T18:58:47.265Z,100.00
2023-02-03T19:01:28.687Z,100.00
2023-02-03T19:03:56.857Z,100.00
2023-02-03T19:06:30.111Z,100.00
2023-02-03T19:08:58.598Z,100.00
2023-02-03T19:11:26.267Z,100.00
2023-02-03T19:13:53.321Z,100.00
2023-02-03T19:16:20.280Z,100.00
2023-02-03T19:18:47.800Z,100.00
2023-02-03T19:21:15.004Z,100.00
2023-02-03T19:23:42.301Z,100.00
2023-02-03T19:26:10.289Z,100.00
2023-02-03T19:28:37.540Z,100.00
2023-02-03T19:31:10.757Z,100.00
2023-02-03T19:33:38.065Z,100.00
2023-02-03T19:36:06.441Z,100.00
2023-02-03T19:38:34.015Z,100.00
2023-02-03T19:41:04.047Z,100.00
2023-02-03T19:43:31.503Z,100.00
2023-02-03T19:45:59.087Z,100.00
2023-02-03T19:48:26.437Z,100.00
2023-02-03T19:50:53.249Z,100.00
2023-02-03T19:53:21.502Z,100.00
2023-02-03T19:55:48.513Z,100.00
2023-02-03T19:58:15.855Z,100.00
2023-02-03T20:00:43.702Z,100.00
2023-02-03T20:03:10.953Z,100.00
2023-02-03T20:05:38.163Z,100.00
2023-02-03T20:08:05.468Z,100.00
2023-02-03T20:10:33.056Z,100.00
2023-02-03T20:13:00.646Z,100.00
2023-02-03T20:15:27.518Z,100.00
2023-02-03T20:17:54.514Z,100.00
2023-02-03T20:20:21.920Z,100.00
2023-02-03T20:22:49.579Z,100.00
2023-02-03T20:25:17.008Z,100.00
2023-02-03T20:27:44.087Z,100.00
2023-02-03T20:30:11.833Z,100.00
2023-02-03T20:32:39.627Z,100.00
2023-02-03T20:35:07.435Z,100.00
2023-02-03T20:37:36.288Z,100.00
2023-02-03T20:40:12.798Z,100.00
2023-02-03T20:42:40.277Z,100.00
2023-02-03T20:45:13.533Z,100.00
2023-02-03T20:47:40.541Z,100.00
2023-02-03T20:50:18.988Z,100.00
2023-02-03T20:52:47.187Z,100.00
2023-02-03T20:55:19.968Z,100.00
2023-02-03T20:57:51.513Z,100.00
2023-02-03T21:00:26.496Z,100.00
2023-02-03T21:03:12.505Z,100.00
2023-02-03T21:05:45.470Z,100.00
2023-02-03T21:08:20.891Z,100.00
2023-02-03T21:10:51.570Z,100.00
2023-02-03T21:13:28.749Z,100.00
2023-02-03T21:16:00.107Z,100.00
2023-02-03T21:18:32.727Z,100.00
2023-02-03T21:21:00.634Z,100.00
2023-02-03T21:23:42.975Z,100.00
2023-02-03T21:26:20.471Z,100.00
2023-02-03T21:28:52.606Z,100.00
2023-02-03T21:31:23.715Z,100.00
2023-02-03T21:33:52.646Z,100.00
2023-02-03T21:36:31.754Z,100.00
2023-02-03T21:39:00.208Z,100.00
2023-02-03T21:41:32.712Z,100.00
2023-02-03T21:44:00.229Z,100.00
2023-02-03T21:46:37.060Z,100.00
2023-02-03T21:49:04.371Z,100.00
2023-02-03T21:51:36.847Z,100.00
2023-02-03T21:54:31.643Z,100.00
2023-02-03T21:56:58.857Z,100.00
2023-02-03T21:59:33.366Z,100.00
2023-02-03T22:02:00.361Z,100.00
2023-02-03T22:04:31.193Z,100.00
2023-02-03T22:06:58.079Z,100.00
2023-02-03T22:09:26.790Z,100.00
2023-02-03T22:11:53.707Z,100.00
2023-02-03T22:14:21.339Z,100.00
2023-02-03T22:16:51.325Z,100.00
2023-02-03T22:19:18.175Z,100.00
2023-02-03T22:21:45.154Z,100.00
2023-02-03T22:24:12.368Z,100.00
2023-02-03T22:26:39.220Z,100.00
2023-02-03T22:29:06.329Z,100.00
2023-02-03T22:31:33.345Z,100.00
2023-02-03T22:34:00.346Z,100.00
2023-02-03T22:36:27.283Z,100.00
2023-02-03T22:38:54.111Z,100.00
2023-02-03T22:41:23.375Z,100.00
2023-02-03T22:43:50.456Z,100.00
2023-02-03T22:46:17.361Z,100.00
2023-02-03T22:48:44.302Z,100.00
2023-02-03T22:51:11.145Z,100.00
2023-02-03T22:53:39.580Z,100.00
2023-02-03T22:56:06.625Z,100.00
2023-02-03T22:58:33.916Z,100.00
2023-02-03T23:01:00.778Z,100.00
2023-02-03T23:03:27.899Z,100.00
2023-02-03T23:05:56.632Z,100.00
2023-02-03T23:08:23.536Z,100.00
2023-02-03T23:10:50.426Z,100.00
2023-02-03T23:13:17.293Z,100.00
2023-02-03T23:15:44.295Z,100.00
2023-02-03T23:18:11.193Z,100.00
2023-02-03T23:20:38.331Z,100.00
2023-02-03T23:23:05.166Z,100.00
2023-02-03T23:25:32.220Z,100.00
2023-02-03T23:28:01.589Z,100.00
2023-02-03T23:30:28.984Z,100.00
2023-02-03T23:32:56.432Z,100.00
2023-02-03T23:35:42.392Z,100.00
2023-02-03T23:38:09.266Z,100.00
2023-02-03T23:40:36.268Z,100.00
2023-02-03T23:43:03.334Z,100.00
2023-02-03T23:45:30.313Z,100.00
2023-02-03T23:47:57.258Z,100.00
2023-02-03T23:50:24.168Z,100.00
2023-02-03T23:52:51.038Z,100.00
2023-02-03T23:55:21.942Z,100.00
2023-02-03T23:57:48.920Z,100.00
